sensor_id;sensor_type;location;lat;lon;timestamp;temperature;humidity
77985;DHT22;67177;47.240;-1.546;2023-03-01T00:01:58;2.70;65.10
77985;DHT22;67177;47.240;-1.546;2023-03-01T00:04:24;2.70;65.00
77985;DHT22;67177;47.240;-1.546;2023-03-01T00:06:50;2.70;65.00
77985;DHT22;67177;47.240;-1.546;2023-03-01T00:09:16;2.70;64.90
77985;DHT22;67177;47.240;-1.546;2023-03-01T00:11:41;2.70;64.80
77985;DHT22;67177;47.240;-1.546;2023-03-01T00:14:07;2.70;64.70
77985;DHT22;67177;47.240;-1.546;2023-03-01T00:16:36;2.70;64.60
77985;DHT22;67177;47.240;-1.546;2023-03-01T00:19:04;2.60;64.50
77985;DHT22;67177;47.240;-1.546;2023-03-01T00:21:30;2.60;64.50
77985;DHT22;67177;47.240;-1.546;2023-03-01T00:23:56;2.50;64.40
77985;DHT22;67177;47.240;-1.546;2023-03-01T00:26:23;2.50;64.20
77985;DHT22;67177;47.240;-1.546;2023-03-01T00:28:49;2.50;64.30
77985;DHT22;67177;47.240;-1.546;2023-03-01T00:31:19;2.50;64.10
77985;DHT22;67177;47.240;-1.546;2023-03-01T00:33:45;2.40;63.90
77985;DHT22;67177;47.240;-1.546;2023-03-01T00:36:12;2.40;63.80
77985;DHT22;67177;47.240;-1.546;2023-03-01T00:38:40;2.40;63.70
77985;DHT22;67177;47.240;-1.546;2023-03-01T00:41:08;2.40;63.50
77985;DHT22;67177;47.240;-1.546;2023-03-01T00:43:34;2.40;63.60
77985;DHT22;67177;47.240;-1.546;2023-03-01T00:46:11;2.40;63.50
77985;DHT22;67177;47.240;-1.546;2023-03-01T00:48:37;2.30;63.30
77985;DHT22;67177;47.240;-1.546;2023-03-01T00:51:08;2.30;63.30
77985;DHT22;67177;47.240;-1.546;2023-03-01T00:53:35;2.30;63.00
77985;DHT22;67177;47.240;-1.546;2023-03-01T00:56:00;2.20;63.00
77985;DHT22;67177;47.240;-1.546;2023-03-01T00:58:26;2.20;63.00
77985;DHT22;67177;47.240;-1.546;2023-03-01T01:00:52;2.20;62.70
77985;DHT22;67177;47.240;-1.546;2023-03-01T01:03:18;2.10;62.80
77985;DHT22;67177;47.240;-1.546;2023-03-01T01:05:44;2.10;62.80
77985;DHT22;67177;47.240;-1.546;2023-03-01T01:08:11;2.10;62.80
77985;DHT22;67177;47.240;-1.546;2023-03-01T01:10:37;2.10;62.70
77985;DHT22;67177;47.240;-1.546;2023-03-01T01:13:03;2.10;62.60
77985;DHT22;67177;47.240;-1.546;2023-03-01T01:15:33;2.10;62.30
77985;DHT22;67177;47.240;-1.546;2023-03-01T01:17:59;2.00;62.00
77985;DHT22;67177;47.240;-1.546;2023-03-01T01:20:24;2.00;61.70
77985;DHT22;67177;47.240;-1.546;2023-03-01T01:22:50;1.90;61.50
77985;DHT22;67177;47.240;-1.546;2023-03-01T01:25:16;1.90;61.50
77985;DHT22;67177;47.240;-1.546;2023-03-01T01:27:42;1.90;61.30
77985;DHT22;67177;47.240;-1.546;2023-03-01T01:30:08;1.90;61.30
77985;DHT22;67177;47.240;-1.546;2023-03-01T01:32:34;1.90;61.10
77985;DHT22;67177;47.240;-1.546;2023-03-01T01:35:00;1.90;61.00
77985;DHT22;67177;47.240;-1.546;2023-03-01T01:37:25;1.90;61.10
77985;DHT22;67177;47.240;-1.546;2023-03-01T01:39:58;1.90;60.90
77985;DHT22;67177;47.240;-1.546;2023-03-01T01:42:24;1.90;60.70
77985;DHT22;67177;47.240;-1.546;2023-03-01T01:45:27;1.80;60.60
77985;DHT22;67177;47.240;-1.546;2023-03-01T01:47:55;1.80;60.40
77985;DHT22;67177;47.240;-1.546;2023-03-01T01:50:22;1.80;60.40
77985;DHT22;67177;47.240;-1.546;2023-03-01T01:52:50;1.80;60.30
77985;DHT22;67177;47.240;-1.546;2023-03-01T01:55:21;1.90;60.30
77985;DHT22;67177;47.240;-1.546;2023-03-01T01:58:01;2.00;60.30
77985;DHT22;67177;47.240;-1.546;2023-03-01T02:00:29;2.00;60.40
77985;DHT22;67177;47.240;-1.546;2023-03-01T02:02:59;2.10;60.30
77985;DHT22;67177;47.240;-1.546;2023-03-01T02:08:33;2.20;60.10
77985;DHT22;67177;47.240;-1.546;2023-03-01T02:11:01;2.20;60.00
77985;DHT22;67177;47.240;-1.546;2023-03-01T02:13:31;2.20;59.90
77985;DHT22;67177;47.240;-1.546;2023-03-01T02:15:57;2.20;59.70
77985;DHT22;67177;47.240;-1.546;2023-03-01T02:18:23;2.20;59.90
77985;DHT22;67177;47.240;-1.546;2023-03-01T02:23:54;2.30;59.90
77985;DHT22;67177;47.240;-1.546;2023-03-01T02:26:25;2.30;59.80
77985;DHT22;67177;47.240;-1.546;2023-03-01T02:28:53;2.30;59.50
77985;DHT22;67177;47.240;-1.546;2023-03-01T02:31:20;2.30;59.40
77985;DHT22;67177;47.240;-1.546;2023-03-01T02:34:06;2.30;59.40
77985;DHT22;67177;47.240;-1.546;2023-03-01T02:36:39;2.20;59.20
77985;DHT22;67177;47.240;-1.546;2023-03-01T02:39:08;2.30;59.10
77985;DHT22;67177;47.240;-1.546;2023-03-01T02:41:42;2.20;59.00
77985;DHT22;67177;47.240;-1.546;2023-03-01T02:44:09;2.20;58.90
77985;DHT22;67177;47.240;-1.546;2023-03-01T02:46:43;2.30;59.10
77985;DHT22;67177;47.240;-1.546;2023-03-01T02:49:27;2.30;58.90
77985;DHT22;67177;47.240;-1.546;2023-03-01T02:55:13;2.30;59.00
77985;DHT22;67177;47.240;-1.546;2023-03-01T02:57:42;2.40;58.90
77985;DHT22;67177;47.240;-1.546;2023-03-01T03:00:35;2.40;58.70
77985;DHT22;67177;47.240;-1.546;2023-03-01T03:02:59;2.40;58.80
77985;DHT22;67177;47.240;-1.546;2023-03-01T03:05:27;2.50;58.90
77985;DHT22;67177;47.240;-1.546;2023-03-01T03:07:54;2.50;58.70
77985;DHT22;67177;47.240;-1.546;2023-03-01T03:10:25;2.50;58.70
77985;DHT22;67177;47.240;-1.546;2023-03-01T03:13:01;2.50;58.80
77985;DHT22;67177;47.240;-1.546;2023-03-01T03:15:28;2.50;58.90
77985;DHT22;67177;47.240;-1.546;2023-03-01T03:17:55;2.50;58.90
77985;DHT22;67177;47.240;-1.546;2023-03-01T03:20:23;2.50;59.00
77985;DHT22;67177;47.240;-1.546;2023-03-01T03:22:51;2.50;58.80
77985;DHT22;67177;47.240;-1.546;2023-03-01T03:25:18;2.50;58.80
77985;DHT22;67177;47.240;-1.546;2023-03-01T03:27:46;2.50;58.70
77985;DHT22;67177;47.240;-1.546;2023-03-01T03:30:18;2.50;58.70
77985;DHT22;67177;47.240;-1.546;2023-03-01T03:32:45;2.40;58.60
77985;DHT22;67177;47.240;-1.546;2023-03-01T03:35:22;2.40;58.70
77985;DHT22;67177;47.240;-1.546;2023-03-01T03:37:48;2.40;58.60
77985;DHT22;67177;47.240;-1.546;2023-03-01T03:42:56;2.40;58.50
77985;DHT22;67177;47.240;-1.546;2023-03-01T03:45:22;2.40;58.50
77985;DHT22;67177;47.240;-1.546;2023-03-01T03:47:48;2.40;58.40
77985;DHT22;67177;47.240;-1.546;2023-03-01T03:50:15;2.30;58.30
77985;DHT22;67177;47.240;-1.546;2023-03-01T03:52:42;2.30;58.30
77985;DHT22;67177;47.240;-1.546;2023-03-01T03:55:09;2.30;58.30
77985;DHT22;67177;47.240;-1.546;2023-03-01T03:57:42;2.30;58.20
77985;DHT22;67177;47.240;-1.546;2023-03-01T04:00:10;2.30;58.20
77985;DHT22;67177;47.240;-1.546;2023-03-01T04:02:42;2.30;58.10
77985;DHT22;67177;47.240;-1.546;2023-03-01T04:05:10;2.30;58.10
77985;DHT22;67177;47.240;-1.546;2023-03-01T04:07:37;2.30;58.00
77985;DHT22;67177;47.240;-1.546;2023-03-01T04:10:05;2.20;58.10
77985;DHT22;67177;47.240;-1.546;2023-03-01T04:12:32;2.20;58.20
77985;DHT22;67177;47.240;-1.546;2023-03-01T04:15:00;2.20;58.10
77985;DHT22;67177;47.240;-1.546;2023-03-01T04:17:26;2.30;58.10
77985;DHT22;67177;47.240;-1.546;2023-03-01T04:19:52;2.30;58.10
77985;DHT22;67177;47.240;-1.546;2023-03-01T04:22:18;2.30;57.80
77985;DHT22;67177;47.240;-1.546;2023-03-01T04:24:44;2.30;57.90
77985;DHT22;67177;47.240;-1.546;2023-03-01T04:27:11;2.30;57.80
77985;DHT22;67177;47.240;-1.546;2023-03-01T04:29:36;2.30;57.80
77985;DHT22;67177;47.240;-1.546;2023-03-01T04:32:02;2.30;57.80
77985;DHT22;67177;47.240;-1.546;2023-03-01T04:34:29;2.30;57.70
77985;DHT22;67177;47.240;-1.546;2023-03-01T04:36:54;2.30;57.90
77985;DHT22;67177;47.240;-1.546;2023-03-01T04:39:20;2.30;57.90
77985;DHT22;67177;47.240;-1.546;2023-03-01T04:41:46;2.30;57.60
77985;DHT22;67177;47.240;-1.546;2023-03-01T04:44:12;2.20;57.50
77985;DHT22;67177;47.240;-1.546;2023-03-01T04:46:38;2.20;57.70
77985;DHT22;67177;47.240;-1.546;2023-03-01T04:49:04;2.20;57.80
77985;DHT22;67177;47.240;-1.546;2023-03-01T04:51:30;2.20;57.70
77985;DHT22;67177;47.240;-1.546;2023-03-01T04:53:58;2.20;57.60
77985;DHT22;67177;47.240;-1.546;2023-03-01T04:56:23;2.20;57.70
77985;DHT22;67177;47.240;-1.546;2023-03-01T04:58:49;2.20;57.60
77985;DHT22;67177;47.240;-1.546;2023-03-01T05:01:18;2.20;57.50
77985;DHT22;67177;47.240;-1.546;2023-03-01T05:03:47;2.30;57.40
77985;DHT22;67177;47.240;-1.546;2023-03-01T05:06:14;2.30;57.50
77985;DHT22;67177;47.240;-1.546;2023-03-01T05:08:41;2.20;57.50
77985;DHT22;67177;47.240;-1.546;2023-03-01T05:11:07;2.20;57.60
77985;DHT22;67177;47.240;-1.546;2023-03-01T05:13:35;2.20;57.30
77985;DHT22;67177;47.240;-1.546;2023-03-01T05:16:03;2.10;57.30
77985;DHT22;67177;47.240;-1.546;2023-03-01T05:18:30;2.20;57.40
77985;DHT22;67177;47.240;-1.546;2023-03-01T05:21:02;2.20;57.20
77985;DHT22;67177;47.240;-1.546;2023-03-01T05:23:30;2.20;57.10
77985;DHT22;67177;47.240;-1.546;2023-03-01T05:25:59;2.20;57.10
77985;DHT22;67177;47.240;-1.546;2023-03-01T05:28:26;2.20;56.70
77985;DHT22;67177;47.240;-1.546;2023-03-01T05:30:52;2.20;56.80
77985;DHT22;67177;47.240;-1.546;2023-03-01T05:33:18;2.10;56.70
77985;DHT22;67177;47.240;-1.546;2023-03-01T05:35:45;2.20;56.70
77985;DHT22;67177;47.240;-1.546;2023-03-01T05:38:12;2.20;56.70
77985;DHT22;67177;47.240;-1.546;2023-03-01T05:40:42;2.20;56.80
77985;DHT22;67177;47.240;-1.546;2023-03-01T05:43:09;2.20;56.80
77985;DHT22;67177;47.240;-1.546;2023-03-01T05:45:36;2.20;56.70
77985;DHT22;67177;47.240;-1.546;2023-03-01T05:48:02;2.20;56.10
77985;DHT22;67177;47.240;-1.546;2023-03-01T05:50:29;2.20;56.00
77985;DHT22;67177;47.240;-1.546;2023-03-01T05:53:05;2.20;56.00
77985;DHT22;67177;47.240;-1.546;2023-03-01T05:55:34;2.10;55.80
77985;DHT22;67177;47.240;-1.546;2023-03-01T05:58:02;2.10;55.60
77985;DHT22;67177;47.240;-1.546;2023-03-01T06:00:29;2.10;55.70
77985;DHT22;67177;47.240;-1.546;2023-03-01T06:02:56;2.10;55.60
77985;DHT22;67177;47.240;-1.546;2023-03-01T06:05:22;2.10;55.40
77985;DHT22;67177;47.240;-1.546;2023-03-01T06:07:49;2.10;55.40
77985;DHT22;67177;47.240;-1.546;2023-03-01T06:10:16;2.00;55.30
77985;DHT22;67177;47.240;-1.546;2023-03-01T06:12:42;2.00;55.40
77985;DHT22;67177;47.240;-1.546;2023-03-01T06:15:10;2.00;55.50
77985;DHT22;67177;47.240;-1.546;2023-03-01T06:17:38;2.00;55.30
77985;DHT22;67177;47.240;-1.546;2023-03-01T06:20:05;2.00;55.20
77985;DHT22;67177;47.240;-1.546;2023-03-01T06:22:31;1.90;54.90
77985;DHT22;67177;47.240;-1.546;2023-03-01T06:24:57;1.90;55.00
77985;DHT22;67177;47.240;-1.546;2023-03-01T06:27:23;1.90;55.00
77985;DHT22;67177;47.240;-1.546;2023-03-01T06:29:48;1.90;54.90
77985;DHT22;67177;47.240;-1.546;2023-03-01T06:32:14;1.90;55.00
77985;DHT22;67177;47.240;-1.546;2023-03-01T06:34:40;1.90;54.80
77985;DHT22;67177;47.240;-1.546;2023-03-01T06:37:06;1.90;54.80
77985;DHT22;67177;47.240;-1.546;2023-03-01T06:39:32;1.80;54.90
77985;DHT22;67177;47.240;-1.546;2023-03-01T06:41:58;1.90;55.00
77985;DHT22;67177;47.240;-1.546;2023-03-01T06:44:24;1.90;54.80
77985;DHT22;67177;47.240;-1.546;2023-03-01T06:46:50;1.90;54.80
77985;DHT22;67177;47.240;-1.546;2023-03-01T06:49:16;1.90;54.70
77985;DHT22;67177;47.240;-1.546;2023-03-01T06:51:44;1.90;54.80
77985;DHT22;67177;47.240;-1.546;2023-03-01T06:54:10;2.00;54.60
77985;DHT22;67177;47.240;-1.546;2023-03-01T06:56:36;1.90;54.50
77985;DHT22;67177;47.240;-1.546;2023-03-01T06:59:01;1.90;54.40
77985;DHT22;67177;47.240;-1.546;2023-03-01T07:01:28;1.90;54.30
77985;DHT22;67177;47.240;-1.546;2023-03-01T07:03:54;1.90;54.20
77985;DHT22;67177;47.240;-1.546;2023-03-01T07:06:20;2.00;54.30
77985;DHT22;67177;47.240;-1.546;2023-03-01T07:08:46;2.00;54.30
77985;DHT22;67177;47.240;-1.546;2023-03-01T07:11:12;2.00;54.20
77985;DHT22;67177;47.240;-1.546;2023-03-01T07:13:38;2.00;54.10
77985;DHT22;67177;47.240;-1.546;2023-03-01T07:16:04;2.00;54.30
77985;DHT22;67177;47.240;-1.546;2023-03-01T07:18:30;2.10;54.00
77985;DHT22;67177;47.240;-1.546;2023-03-01T07:20:55;2.00;53.90
77985;DHT22;67177;47.240;-1.546;2023-03-01T07:23:21;1.90;54.10
77985;DHT22;67177;47.240;-1.546;2023-03-01T07:25:53;1.90;54.10
77985;DHT22;67177;47.240;-1.546;2023-03-01T07:28:19;1.90;54.20
77985;DHT22;67177;47.240;-1.546;2023-03-01T07:30:45;1.90;54.20
77985;DHT22;67177;47.240;-1.546;2023-03-01T07:33:11;2.00;54.00
77985;DHT22;67177;47.240;-1.546;2023-03-01T07:35:36;2.00;53.90
77985;DHT22;67177;47.240;-1.546;2023-03-01T07:38:02;1.90;53.70
77985;DHT22;67177;47.240;-1.546;2023-03-01T07:40:28;1.90;53.80
77985;DHT22;67177;47.240;-1.546;2023-03-01T07:42:57;1.90;54.00
77985;DHT22;67177;47.240;-1.546;2023-03-01T07:45:24;2.00;54.00
77985;DHT22;67177;47.240;-1.546;2023-03-01T07:47:51;2.00;53.60
77985;DHT22;67177;47.240;-1.546;2023-03-01T07:50:18;2.00;53.70
77985;DHT22;67177;47.240;-1.546;2023-03-01T07:52:48;2.00;53.70
77985;DHT22;67177;47.240;-1.546;2023-03-01T07:55:15;2.00;53.50
77985;DHT22;67177;47.240;-1.546;2023-03-01T07:57:40;2.00;53.60
77985;DHT22;67177;47.240;-1.546;2023-03-01T08:00:07;2.10;53.70
77985;DHT22;67177;47.240;-1.546;2023-03-01T08:02:33;2.10;53.50
77985;DHT22;67177;47.240;-1.546;2023-03-01T08:04:59;2.10;53.40
77985;DHT22;67177;47.240;-1.546;2023-03-01T08:07:25;2.20;53.30
77985;DHT22;67177;47.240;-1.546;2023-03-01T08:09:50;2.20;53.50
77985;DHT22;67177;47.240;-1.546;2023-03-01T08:12:16;2.30;53.30
77985;DHT22;67177;47.240;-1.546;2023-03-01T08:14:42;2.30;53.20
77985;DHT22;67177;47.240;-1.546;2023-03-01T08:17:08;2.30;53.10
77985;DHT22;67177;47.240;-1.546;2023-03-01T08:19:34;2.30;53.10
77985;DHT22;67177;47.240;-1.546;2023-03-01T08:22:01;2.30;53.10
77985;DHT22;67177;47.240;-1.546;2023-03-01T08:24:27;2.30;53.00
77985;DHT22;67177;47.240;-1.546;2023-03-01T08:26:53;2.40;53.00
77985;DHT22;67177;47.240;-1.546;2023-03-01T08:29:19;2.40;53.00
77985;DHT22;67177;47.240;-1.546;2023-03-01T08:31:45;2.50;53.20
77985;DHT22;67177;47.240;-1.546;2023-03-01T08:34:13;2.50;53.10
77985;DHT22;67177;47.240;-1.546;2023-03-01T08:36:44;2.60;52.90
77985;DHT22;67177;47.240;-1.546;2023-03-01T08:39:12;2.50;52.40
77985;DHT22;67177;47.240;-1.546;2023-03-01T08:41:38;2.50;52.50
77985;DHT22;67177;47.240;-1.546;2023-03-01T08:44:04;2.50;52.70
77985;DHT22;67177;47.240;-1.546;2023-03-01T08:46:32;2.50;52.70
77985;DHT22;67177;47.240;-1.546;2023-03-01T08:48:58;2.50;52.40
77985;DHT22;67177;47.240;-1.546;2023-03-01T08:51:25;2.60;52.10
77985;DHT22;67177;47.240;-1.546;2023-03-01T08:53:51;2.60;52.10
77985;DHT22;67177;47.240;-1.546;2023-03-01T08:56:18;2.60;52.10
77985;DHT22;67177;47.240;-1.546;2023-03-01T08:58:47;2.60;52.10
77985;DHT22;67177;47.240;-1.546;2023-03-01T09:01:16;2.60;52.10
77985;DHT22;67177;47.240;-1.546;2023-03-01T09:03:42;2.70;51.90
77985;DHT22;67177;47.240;-1.546;2023-03-01T09:06:09;2.70;51.70
77985;DHT22;67177;47.240;-1.546;2023-03-01T09:08:37;2.70;51.60
77985;DHT22;67177;47.240;-1.546;2023-03-01T09:11:04;2.80;51.80
77985;DHT22;67177;47.240;-1.546;2023-03-01T09:13:30;2.90;51.80
77985;DHT22;67177;47.240;-1.546;2023-03-01T09:16:00;2.90;51.70
77985;DHT22;67177;47.240;-1.546;2023-03-01T09:18:25;3.00;51.70
77985;DHT22;67177;47.240;-1.546;2023-03-01T09:20:51;3.10;51.70
77985;DHT22;67177;47.240;-1.546;2023-03-01T09:23:17;3.10;51.70
77985;DHT22;67177;47.240;-1.546;2023-03-01T09:25:42;3.20;51.60
77985;DHT22;67177;47.240;-1.546;2023-03-01T09:28:08;3.20;51.50
77985;DHT22;67177;47.240;-1.546;2023-03-01T09:30:36;3.30;51.40
77985;DHT22;67177;47.240;-1.546;2023-03-01T09:33:01;3.40;51.20
77985;DHT22;67177;47.240;-1.546;2023-03-01T09:35:27;3.40;50.90
77985;DHT22;67177;47.240;-1.546;2023-03-01T09:37:53;3.40;50.80
77985;DHT22;67177;47.240;-1.546;2023-03-01T09:40:23;3.40;51.10
77985;DHT22;67177;47.240;-1.546;2023-03-01T09:43:15;3.50;51.10
77985;DHT22;67177;47.240;-1.546;2023-03-01T09:45:45;3.60;51.00
77985;DHT22;67177;47.240;-1.546;2023-03-01T09:48:17;3.60;50.90
77985;DHT22;67177;47.240;-1.546;2023-03-01T09:50:44;3.60;50.90
77985;DHT22;67177;47.240;-1.546;2023-03-01T09:53:16;3.70;51.00
77985;DHT22;67177;47.240;-1.546;2023-03-01T09:58:34;3.90;50.90
77985;DHT22;67177;47.240;-1.546;2023-03-01T10:04:12;4.00;50.30
77985;DHT22;67177;47.240;-1.546;2023-03-01T10:06:50;4.00;49.90
77985;DHT22;67177;47.240;-1.546;2023-03-01T10:09:17;4.00;50.00
77985;DHT22;67177;47.240;-1.546;2023-03-01T10:11:51;4.10;50.20
77985;DHT22;67177;47.240;-1.546;2023-03-01T10:17:02;4.30;50.20
77985;DHT22;67177;47.240;-1.546;2023-03-01T10:19:44;4.30;50.10
77985;DHT22;67177;47.240;-1.546;2023-03-01T10:22:19;4.40;49.90
77985;DHT22;67177;47.240;-1.546;2023-03-01T10:24:47;4.40;49.90
77985;DHT22;67177;47.240;-1.546;2023-03-01T10:27:24;4.50;49.60
77985;DHT22;67177;47.240;-1.546;2023-03-01T10:30:17;4.60;49.70
77985;DHT22;67177;47.240;-1.546;2023-03-01T10:32:45;4.60;49.70
77985;DHT22;67177;47.240;-1.546;2023-03-01T10:35:19;4.70;49.20
77985;DHT22;67177;47.240;-1.546;2023-03-01T10:38:05;4.70;49.20
77985;DHT22;67177;47.240;-1.546;2023-03-01T10:40:32;4.70;49.40
77985;DHT22;67177;47.240;-1.546;2023-03-01T10:43:03;4.80;48.80
77985;DHT22;67177;47.240;-1.546;2023-03-01T10:45:36;4.80;48.70
77985;DHT22;67177;47.240;-1.546;2023-03-01T10:48:18;4.90;48.50
77985;DHT22;67177;47.240;-1.546;2023-03-01T10:51:05;4.90;48.80
77985;DHT22;67177;47.240;-1.546;2023-03-01T10:53:48;5.00;48.60
77985;DHT22;67177;47.240;-1.546;2023-03-01T10:56:15;5.10;48.70
77985;DHT22;67177;47.240;-1.546;2023-03-01T10:59:03;5.20;48.20
77985;DHT22;67177;47.240;-1.546;2023-03-01T11:01:33;5.20;48.50
77985;DHT22;67177;47.240;-1.546;2023-03-01T11:06:34;5.30;47.30
77985;DHT22;67177;47.240;-1.546;2023-03-01T11:09:21;5.40;46.90
77985;DHT22;67177;47.240;-1.546;2023-03-01T11:11:59;5.40;46.50
77985;DHT22;67177;47.240;-1.546;2023-03-01T11:14:29;5.30;46.40
77985;DHT22;67177;47.240;-1.546;2023-03-01T11:22:50;5.50;45.90
77985;DHT22;67177;47.240;-1.546;2023-03-01T11:25:20;5.50;46.00
77985;DHT22;67177;47.240;-1.546;2023-03-01T11:27:48;5.60;45.80
77985;DHT22;67177;47.240;-1.546;2023-03-01T11:30:38;5.70;45.90
77985;DHT22;67177;47.240;-1.546;2023-03-01T11:36:07;5.70;45.50
77985;DHT22;67177;47.240;-1.546;2023-03-01T11:38:37;5.80;45.80
77985;DHT22;67177;47.240;-1.546;2023-03-01T11:41:23;5.90;45.90
77985;DHT22;67177;47.240;-1.546;2023-03-01T11:43:57;6.00;46.00
77985;DHT22;67177;47.240;-1.546;2023-03-01T11:54:34;6.20;46.00
77985;DHT22;67177;47.240;-1.546;2023-03-01T12:03:54;6.30;45.50
77985;DHT22;67177;47.240;-1.546;2023-03-01T12:05:50;6.30;45.50
77985;DHT22;67177;47.240;-1.546;2023-03-01T12:08:48;6.30;45.40
77985;DHT22;67177;47.240;-1.546;2023-03-01T12:11:25;6.40;45.70
77985;DHT22;67177;47.240;-1.546;2023-03-01T12:19:56;6.60;45.30
77985;DHT22;67177;47.240;-1.546;2023-03-01T12:22:30;6.60;44.90
77985;DHT22;67177;47.240;-1.546;2023-03-01T12:25:16;6.60;44.60
77985;DHT22;67177;47.240;-1.546;2023-03-01T12:30:44;6.60;44.70
77985;DHT22;67177;47.240;-1.546;2023-03-01T12:33:39;6.70;45.00
77985;DHT22;67177;47.240;-1.546;2023-03-01T12:44:47;6.80;44.20
77985;DHT22;67177;47.240;-1.546;2023-03-01T12:47:52;6.80;43.90
77985;DHT22;67177;47.240;-1.546;2023-03-01T12:50:23;6.80;44.00
77985;DHT22;67177;47.240;-1.546;2023-03-01T12:52:58;6.90;44.10
77985;DHT22;67177;47.240;-1.546;2023-03-01T12:55:34;6.90;43.90
77985;DHT22;67177;47.240;-1.546;2023-03-01T12:58:17;6.90;44.00
77985;DHT22;67177;47.240;-1.546;2023-03-01T13:06:38;7.10;44.30
77985;DHT22;67177;47.240;-1.546;2023-03-01T13:11:35;7.20;43.80
77985;DHT22;67177;47.240;-1.546;2023-03-01T13:16:49;7.20;44.00
77985;DHT22;67177;47.240;-1.546;2023-03-01T13:19:22;7.30;44.20
77985;DHT22;67177;47.240;-1.546;2023-03-01T13:21:49;7.30;43.80
77985;DHT22;67177;47.240;-1.546;2023-03-01T13:24:39;7.30;43.90
77985;DHT22;67177;47.240;-1.546;2023-03-01T13:29:58;7.40;43.80
77985;DHT22;67177;47.240;-1.546;2023-03-01T13:32:33;7.40;44.00
77985;DHT22;67177;47.240;-1.546;2023-03-01T13:37:33;7.50;43.70
77985;DHT22;67177;47.240;-1.546;2023-03-01T13:40:02;7.50;43.70
77985;DHT22;67177;47.240;-1.546;2023-03-01T13:42:36;7.60;43.80
77985;DHT22;67177;47.240;-1.546;2023-03-01T13:45:15;7.70;43.90
77985;DHT22;67177;47.240;-1.546;2023-03-01T13:47:42;7.70;43.90
77985;DHT22;67177;47.240;-1.546;2023-03-01T13:50:18;7.70;43.60
77985;DHT22;67177;47.240;-1.546;2023-03-01T13:52:55;7.70;43.70
77985;DHT22;67177;47.240;-1.546;2023-03-01T13:55:41;7.70;43.80
77985;DHT22;67177;47.240;-1.546;2023-03-01T13:58:41;7.70;43.80
77985;DHT22;67177;47.240;-1.546;2023-03-01T14:01:38;7.80;43.80
77985;DHT22;67177;47.240;-1.546;2023-03-01T14:04:24;7.80;43.70
77985;DHT22;67177;47.240;-1.546;2023-03-01T14:06:51;7.80;43.80
77985;DHT22;67177;47.240;-1.546;2023-03-01T14:09:21;7.80;44.00
77985;DHT22;67177;47.240;-1.546;2023-03-01T14:19:43;7.90;43.90
77985;DHT22;67177;47.240;-1.546;2023-03-01T14:22:30;7.90;44.00
77985;DHT22;67177;47.240;-1.546;2023-03-01T14:25:16;7.90;44.20
77985;DHT22;67177;47.240;-1.546;2023-03-01T14:27:42;7.90;44.30
77985;DHT22;67177;47.240;-1.546;2023-03-01T14:30:15;7.90;44.20
77985;DHT22;67177;47.240;-1.546;2023-03-01T14:32:43;7.90;44.10
77985;DHT22;67177;47.240;-1.546;2023-03-01T14:35:22;8.00;44.20
77985;DHT22;67177;47.240;-1.546;2023-03-01T14:37:48;7.90;44.10
77985;DHT22;67177;47.240;-1.546;2023-03-01T14:40:35;8.00;44.20
77985;DHT22;67177;47.240;-1.546;2023-03-01T14:43:09;8.00;44.60
77985;DHT22;67177;47.240;-1.546;2023-03-01T14:45:36;8.00;44.70
77985;DHT22;67177;47.240;-1.546;2023-03-01T14:48:03;8.10;44.90
77985;DHT22;67177;47.240;-1.546;2023-03-01T14:50:32;8.00;44.70
77985;DHT22;67177;47.240;-1.546;2023-03-01T14:53:01;8.10;44.70
77985;DHT22;67177;47.240;-1.546;2023-03-01T14:55:38;8.00;44.80
77985;DHT22;67177;47.240;-1.546;2023-03-01T14:58:12;8.00;45.00
77985;DHT22;67177;47.240;-1.546;2023-03-01T15:00:39;8.10;44.90
77985;DHT22;67177;47.240;-1.546;2023-03-01T15:03:15;8.10;45.10
77985;DHT22;67177;47.240;-1.546;2023-03-01T15:05:43;8.10;45.00
77985;DHT22;67177;47.240;-1.546;2023-03-01T15:08:18;8.10;45.00
77985;DHT22;67177;47.240;-1.546;2023-03-01T15:13:45;8.10;44.80
77985;DHT22;67177;47.240;-1.546;2023-03-01T15:16:14;8.10;44.60
77985;DHT22;67177;47.240;-1.546;2023-03-01T15:18:50;8.10;44.70
77985;DHT22;67177;47.240;-1.546;2023-03-01T15:21:32;8.10;44.70
77985;DHT22;67177;47.240;-1.546;2023-03-01T15:24:23;8.10;44.60
77985;DHT22;67177;47.240;-1.546;2023-03-01T15:26:52;8.10;44.50
77985;DHT22;67177;47.240;-1.546;2023-03-01T15:29:25;8.10;44.50
77985;DHT22;67177;47.240;-1.546;2023-03-01T15:32:06;8.10;44.60
77985;DHT22;67177;47.240;-1.546;2023-03-01T15:34:45;8.10;44.50
77985;DHT22;67177;47.240;-1.546;2023-03-01T15:37:45;8.10;44.50
77985;DHT22;67177;47.240;-1.546;2023-03-01T15:40:27;8.10;44.30
77985;DHT22;67177;47.240;-1.546;2023-03-01T15:43:05;8.10;44.10
77985;DHT22;67177;47.240;-1.546;2023-03-01T15:45:32;8.10;43.90
77985;DHT22;67177;47.240;-1.546;2023-03-01T15:48:04;8.10;43.90
77985;DHT22;67177;47.240;-1.546;2023-03-01T15:50:35;8.10;43.80
77985;DHT22;67177;47.240;-1.546;2023-03-01T15:53:08;8.10;43.50
77985;DHT22;67177;47.240;-1.546;2023-03-01T15:55:36;8.10;43.60
77985;DHT22;67177;47.240;-1.546;2023-03-01T15:58:04;8.10;43.60
77985;DHT22;67177;47.240;-1.546;2023-03-01T16:00:32;8.10;43.70
77985;DHT22;67177;47.240;-1.546;2023-03-01T16:02:58;8.10;43.80
77985;DHT22;67177;47.240;-1.546;2023-03-01T16:05:29;8.10;44.00
77985;DHT22;67177;47.240;-1.546;2023-03-01T16:07:56;8.10;44.20
77985;DHT22;67177;47.240;-1.546;2023-03-01T16:10:22;8.10;44.40
77985;DHT22;67177;47.240;-1.546;2023-03-01T16:12:49;8.10;44.60
77985;DHT22;67177;47.240;-1.546;2023-03-01T16:15:23;8.00;44.70
77985;DHT22;67177;47.240;-1.546;2023-03-01T16:17:49;8.00;44.80
77985;DHT22;67177;47.240;-1.546;2023-03-01T16:20:16;8.00;44.90
77985;DHT22;67177;47.240;-1.546;2023-03-01T16:22:45;7.90;45.00
77985;DHT22;67177;47.240;-1.546;2023-03-01T16:25:16;7.90;45.10
77985;DHT22;67177;47.240;-1.546;2023-03-01T16:27:47;7.80;45.20
77985;DHT22;67177;47.240;-1.546;2023-03-01T16:30:15;7.80;45.30
77985;DHT22;67177;47.240;-1.546;2023-03-01T16:32:42;7.80;45.40
77985;DHT22;67177;47.240;-1.546;2023-03-01T16:35:10;7.80;45.60
77985;DHT22;67177;47.240;-1.546;2023-03-01T16:37:36;7.70;45.70
77985;DHT22;67177;47.240;-1.546;2023-03-01T16:40:04;7.70;45.80
77985;DHT22;67177;47.240;-1.546;2023-03-01T16:42:34;7.70;45.90
77985;DHT22;67177;47.240;-1.546;2023-03-01T16:45:00;7.70;46.00
77985;DHT22;67177;47.240;-1.546;2023-03-01T16:47:27;7.60;46.00
77985;DHT22;67177;47.240;-1.546;2023-03-01T16:49:53;7.60;46.10
77985;DHT22;67177;47.240;-1.546;2023-03-01T16:52:20;7.60;46.10
77985;DHT22;67177;47.240;-1.546;2023-03-01T16:54:46;7.50;46.20
77985;DHT22;67177;47.240;-1.546;2023-03-01T16:57:12;7.50;46.30
77985;DHT22;67177;47.240;-1.546;2023-03-01T16:59:37;7.40;46.30
77985;DHT22;67177;47.240;-1.546;2023-03-01T17:02:04;7.40;46.60
77985;DHT22;67177;47.240;-1.546;2023-03-01T17:04:31;7.40;46.60
77985;DHT22;67177;47.240;-1.546;2023-03-01T17:06:57;7.30;46.70
77985;DHT22;67177;47.240;-1.546;2023-03-01T17:09:22;7.30;46.90
77985;DHT22;67177;47.240;-1.546;2023-03-01T17:11:49;7.30;47.00
77985;DHT22;67177;47.240;-1.546;2023-03-01T17:14:15;7.20;47.10
77985;DHT22;67177;47.240;-1.546;2023-03-01T17:16:42;7.20;47.20
77985;DHT22;67177;47.240;-1.546;2023-03-01T17:19:07;7.10;47.30